createdAt,value
2023-04-17T00:00:07.030Z,25.60
2023-04-17T00:02:39.788Z,23.77
2023-04-17T00:05:10.489Z,24.40
2023-04-17T00:07:39.223Z,31.10
2023-04-17T00:10:09.277Z,28.60
2023-04-17T00:12:37.951Z,25.67
2023-04-17T00:15:08.596Z,23.87
2023-04-17T00:17:36.604Z,23.87
2023-04-17T00:20:07.914Z,25.37
2023-04-17T00:22:37.348Z,25.97
2023-04-17T00:25:05.892Z,29.20
2023-04-17T00:27:33.909Z,21.30
2023-04-17T00:30:01.848Z,28.53
2023-04-17T00:32:30.214Z,23.10
2023-04-17T00:34:58.196Z,26.87
2023-04-17T00:37:26.144Z,27.43
2023-04-17T00:39:55.478Z,29.00
2023-04-17T00:42:23.476Z,31.57
2023-04-17T00:44:51.393Z,23.67
2023-04-17T00:47:22.287Z,23.63
2023-04-17T00:49:51.072Z,30.20
2023-04-17T00:52:28.775Z,25.23
2023-04-17T00:54:59.903Z,30.33
2023-04-17T00:57:28.156Z,25.17
2023-04-17T00:59:58.069Z,25.10
2023-04-17T01:02:27.044Z,22.63
2023-04-17T01:04:55.542Z,23.50
2023-04-17T01:07:23.854Z,22.97
2023-04-17T01:09:52.041Z,27.27
2023-04-17T01:12:22.870Z,27.43
2023-04-17T01:14:51.820Z,26.67
2023-04-17T01:17:20.538Z,36.03
2023-04-17T01:19:49.563Z,27.47
2023-04-17T01:22:17.703Z,34.17
2023-04-17T01:24:47.072Z,30.43
2023-04-17T01:27:15.657Z,30.33
2023-04-17T01:29:46.065Z,30.60
2023-04-17T01:32:14.062Z,22.10
2023-04-17T01:34:42.414Z,23.47
2023-04-17T01:37:10.451Z,23.27
2023-04-17T01:39:38.439Z,25.17
2023-04-17T01:42:07.997Z,27.87
2023-04-17T01:44:37.422Z,28.47
2023-04-17T01:47:05.640Z,29.20
2023-04-17T01:49:33.864Z,29.40
2023-04-17T01:52:01.860Z,30.53
2023-04-17T01:54:29.903Z,30.70
2023-04-17T01:56:58.002Z,27.33
2023-04-17T01:59:27.416Z,36.10
2023-04-17T02:01:56.547Z,28.60
2023-04-17T02:04:24.689Z,26.27
2023-04-17T02:06:52.825Z,28.50
2023-04-17T02:09:20.858Z,25.63
2023-04-17T02:11:48.824Z,27.10
2023-04-17T02:14:18.930Z,36.07
2023-04-17T02:16:48.328Z,34.67
2023-04-17T02:19:16.313Z,25.60
2023-04-17T02:21:44.306Z,28.70
2023-04-17T02:24:12.256Z,29.43
2023-04-17T02:26:40.591Z,25.97
2023-04-17T02:29:08.635Z,27.57
2023-04-17T02:31:37.513Z,34.13
2023-04-17T02:34:06.873Z,28.90
2023-04-17T02:36:34.911Z,27.60
2023-04-17T02:39:03.155Z,27.47
2023-04-17T02:41:31.160Z,32.87
2023-04-17T02:44:01.173Z,32.00
2023-04-17T02:46:29.326Z,35.07
2023-04-17T02:49:00.292Z,27.93
2023-04-17T02:51:29.619Z,30.13
2023-04-17T02:53:57.562Z,27.53
2023-04-17T02:56:25.573Z,23.23
2023-04-17T02:58:53.569Z,35.07
2023-04-17T03:01:22.160Z,31.13
2023-04-17T03:03:52.525Z,35.03
2023-04-17T03:06:21.573Z,29.00
2023-04-17T03:08:51.495Z,43.90
2023-04-17T03:11:19.842Z,33.90
2023-04-17T03:13:47.836Z,28.00
2023-04-17T03:16:15.951Z,37.63
2023-04-17T03:18:46.595Z,35.80
2023-04-17T03:21:14.560Z,39.93
2023-04-17T03:23:43.378Z,31.97
2023-04-17T03:26:12.859Z,36.97
2023-04-17T03:28:40.895Z,31.50
2023-04-17T03:31:08.970Z,38.33
2023-04-17T03:33:37.834Z,36.63
2023-04-17T03:36:07.004Z,44.00
2023-04-17T03:38:36.861Z,32.00
2023-04-17T03:41:06.900Z,37.03
2023-04-17T03:43:36.213Z,42.40
2023-04-17T03:46:04.243Z,39.13
2023-04-17T03:48:32.652Z,31.90
2023-04-17T03:51:01.019Z,36.43
2023-04-17T03:53:30.922Z,37.30
2023-04-17T03:56:01.831Z,36.10
2023-04-17T03:58:35.970Z,31.97
2023-04-17T04:01:04.803Z,34.27
2023-04-17T04:03:37.632Z,36.17
2023-04-17T04:06:07.278Z,35.07
2023-04-17T04:08:35.689Z,38.03
2023-04-17T04:11:04.132Z,32.93
2023-04-17T04:13:37.916Z,38.20
2023-04-17T04:16:08.294Z,41.20
2023-04-17T04:18:39.383Z,39.17
2023-04-17T04:21:07.823Z,33.33
2023-04-17T04:23:41.231Z,39.40
2023-04-17T04:26:11.713Z,37.70
2023-04-17T04:28:47.340Z,41.67
2023-04-17T04:31:29.627Z,35.90
2023-04-17T04:34:01.184Z,44.97
2023-04-17T04:36:30.235Z,44.23
2023-04-17T04:39:11.701Z,43.87
2023-04-17T04:41:45.814Z,41.60
2023-04-17T04:44:16.164Z,41.77
2023-04-17T04:46:45.778Z,38.43
2023-04-17T04:49:14.036Z,43.00
2023-04-17T04:51:42.115Z,38.67
2023-04-17T04:54:10.624Z,37.60
2023-04-17T04:56:46.772Z,37.77
2023-04-17T04:59:17.963Z,43.70
2023-04-17T05:01:52.327Z,50.97
2023-04-17T05:04:23.153Z,47.50
2023-04-17T05:06:58.008Z,45.60
2023-04-17T05:09:26.416Z,38.63
2023-04-17T05:11:57.606Z,40.50
2023-04-17T05:14:27.094Z,50.70
2023-04-17T05:16:55.823Z,42.90
2023-04-17T05:19:24.564Z,43.70
2023-04-17T05:21:57.537Z,44.10
2023-04-17T05:24:25.794Z,50.13
2023-04-17T05:26:54.281Z,44.03
2023-04-17T05:29:22.267Z,50.53
2023-04-17T05:31:51.982Z,54.37
2023-04-17T05:34:35.245Z,42.77
2023-04-17T05:37:04.949Z,43.63
2023-04-17T05:39:32.943Z,41.33
2023-04-17T05:42:02.526Z,52.27
2023-04-17T05:44:31.123Z,42.10
2023-04-17T05:47:00.648Z,49.07
2023-04-17T05:49:28.576Z,48.30
2023-04-17T05:51:56.592Z,45.77
2023-04-17T05:54:24.709Z,37.00
2023-04-17T05:56:53.459Z,49.87
2023-04-17T05:59:22.342Z,42.80
2023-04-17T06:01:50.936Z,49.30
2023-04-17T06:04:23.629Z,42.07
2023-04-17T06:06:52.635Z,43.67
2023-04-17T06:09:22.729Z,46.77
2023-04-17T06:11:51.932Z,43.57
2023-04-17T06:14:20.168Z,44.60
2023-04-17T06:16:48.788Z,45.87
2023-04-17T06:19:17.978Z,42.07
2023-04-17T06:21:47.677Z,45.57
2023-04-17T06:24:15.840Z,42.07
2023-04-17T06:26:47.967Z,43.40
2023-04-17T06:29:16.056Z,46.73
2023-04-17T06:31:45.248Z,45.87
2023-04-17T06:34:13.861Z,42.43
2023-04-17T06:36:46.948Z,47.77
2023-04-17T06:39:16.939Z,38.00
2023-04-17T06:41:45.475Z,46.10
2023-04-17T06:44:14.200Z,54.70
2023-04-17T06:46:47.237Z,42.43
2023-04-17T06:49:15.432Z,39.17
2023-04-17T06:51:45.903Z,36.60
2023-04-17T06:54:15.371Z,40.10
2023-04-17T06:56:43.345Z,47.80
2023-04-17T06:59:11.614Z,45.07
2023-04-17T07:01:40.336Z,40.73
2023-04-17T07:04:09.110Z,37.23
2023-04-17T07:06:37.156Z,40.70
2023-04-17T07:09:05.491Z,44.40
2023-04-17T07:11:34.907Z,38.80
2023-04-17T07:14:02.847Z,39.00
2023-04-17T07:16:30.842Z,47.50
2023-04-17T07:18:58.830Z,39.63
2023-04-17T07:21:27.698Z,38.97
2023-04-17T07:23:55.695Z,34.70
2023-04-17T07:26:23.737Z,47.53
2023-04-17T07:28:53.112Z,39.13
2023-04-17T07:31:22.061Z,46.03
2023-04-17T07:33:50.556Z,45.87
2023-04-17T07:36:18.563Z,41.37
2023-04-17T07:38:46.506Z,41.47
2023-04-17T07:41:14.477Z,39.10
2023-04-17T07:43:42.444Z,43.43
2023-04-17T07:46:11.853Z,42.43
2023-04-17T07:48:41.032Z,39.03
2023-04-17T07:51:09.098Z,40.23
2023-04-17T07:53:38.536Z,36.00
2023-04-17T07:56:07.003Z,40.17
2023-04-17T07:58:36.294Z,39.53
2023-04-17T08:01:05.687Z,47.80
2023-04-17T08:03:35.236Z,37.30
2023-04-17T08:06:03.454Z,48.00
2023-04-17T08:08:31.444Z,39.67
2023-04-17T08:10:59.428Z,45.47
2023-04-17T08:13:27.466Z,45.13
2023-04-17T08:15:55.436Z,42.10
2023-04-17T08:18:23.650Z,44.53
2023-04-17T08:20:53.768Z,44.60
2023-04-17T08:23:21.730Z,40.20
2023-04-17T08:25:49.891Z,43.33
2023-04-17T08:28:18.288Z,44.20
2023-04-17T08:30:46.392Z,41.03
2023-04-17T08:33:16.873Z,35.87
2023-04-17T08:35:45.300Z,41.00
2023-04-17T08:38:15.150Z,39.10
2023-04-17T08:40:46.572Z,47.10
2023-04-17T08:43:16.445Z,44.40
2023-04-17T08:45:52.848Z,45.10
2023-04-17T08:48:21.848Z,43.50
2023-04-17T08:50:51.900Z,49.30
2023-04-17T08:53:21.942Z,42.70
2023-04-17T08:55:50.209Z,46.73
2023-04-17T08:58:18.238Z,42.07
2023-04-17T09:00:46.774Z,41.50
2023-04-17T09:03:15.783Z,40.73
2023-04-17T09:05:46.050Z,39.03
2023-04-17T09:08:15.682Z,44.00
2023-04-17T09:10:46.750Z,37.87
2023-04-17T09:13:16.127Z,36.67
2023-04-17T09:15:45.233Z,34.93
2023-04-17T09:18:26.497Z,34.33
2023-04-17T09:20:57.494Z,33.80
2023-04-17T09:23:25.980Z,31.90
2023-04-17T09:26:10.856Z,35.10
2023-04-17T09:28:40.271Z,36.07
2023-04-17T09:31:25.516Z,30.90
2023-04-17T09:33:58.609Z,33.60
2023-04-17T09:36:27.786Z,29.67
2023-04-17T09:38:56.042Z,31.87
2023-04-17T09:41:27.159Z,28.80
2023-04-17T09:43:56.116Z,33.27
2023-04-17T09:46:38.991Z,28.10
2023-04-17T09:49:11.952Z,32.00
2023-04-17T09:51:40.840Z,34.77
2023-04-17T09:54:12.348Z,34.83
2023-04-17T09:56:42.324Z,31.80
2023-04-17T09:59:11.060Z,29.07
2023-04-17T10:01:40.844Z,29.47
2023-04-17T10:04:09.236Z,25.90
2023-04-17T10:06:37.621Z,27.73
2023-04-17T10:09:05.906Z,21.90
2023-04-17T10:11:37.736Z,22.50
2023-04-17T10:14:11.952Z,21.37
2023-04-17T10:16:42.598Z,26.77
2023-04-17T10:19:31.075Z,23.77
2023-04-17T10:22:31.686Z,21.70
2023-04-17T10:25:20.449Z,24.40
2023-04-17T10:27:59.327Z,22.63
2023-04-17T10:30:52.126Z,19.93
2023-04-17T10:33:22.646Z,21.43
2023-04-17T10:35:50.749Z,20.03
2023-04-17T10:38:32.549Z,18.20
2023-04-17T10:41:04.022Z,18.13
2023-04-17T10:43:32.869Z,13.30
2023-04-17T10:46:07.158Z,22.13
2023-04-17T10:48:38.028Z,18.03
2023-04-17T10:51:41.496Z,20.30
2023-04-17T10:54:13.523Z,21.50
2023-04-17T10:56:43.133Z,17.70
2023-04-17T10:59:12.466Z,15.03
2023-04-17T11:02:00.633Z,16.77
2023-04-17T11:04:31.469Z,15.30
2023-04-17T11:06:59.832Z,14.60
2023-04-17T11:09:31.229Z,14.43
2023-04-17T11:12:02.720Z,15.33
2023-04-17T11:14:32.255Z,18.43
2023-04-17T11:17:02.389Z,12.07
2023-04-17T11:19:30.779Z,14.10
2023-04-17T11:22:01.261Z,12.33
2023-04-17T11:24:31.102Z,11.83
2023-04-17T11:27:01.013Z,12.47
2023-04-17T11:29:29.225Z,12.60
2023-04-17T11:31:58.689Z,15.17
2023-04-17T11:34:28.147Z,13.47
2023-04-17T11:36:57.454Z,11.90
2023-04-17T11:39:27.731Z,17.40
2023-04-17T11:41:57.010Z,13.43
2023-04-17T11:44:25.896Z,11.27
2023-04-17T11:46:55.171Z,11.00
2023-04-17T11:49:28.193Z,11.50
2023-04-17T11:52:00.265Z,10.87
2023-04-17T11:54:28.937Z,8.90
2023-04-17T11:57:02.215Z,17.83
2023-04-17T11:59:34.099Z,11.87
2023-04-17T12:02:02.385Z,10.83
2023-04-17T12:04:34.713Z,10.33
2023-04-17T12:07:04.202Z,9.27
2023-04-17T12:09:34.442Z,13.10
2023-04-17T12:12:05.012Z,12.73
2023-04-17T12:14:33.151Z,13.53
2023-04-17T12:17:01.167Z,11.07
2023-04-17T12:19:29.617Z,10.20
2023-04-17T12:22:00.190Z,7.87
2023-04-17T12:24:28.377Z,7.53
2023-04-17T12:26:58.495Z,12.00
2023-04-17T12:29:40.511Z,9.10
2023-04-17T12:32:11.699Z,8.00
2023-04-17T12:34:40.424Z,8.03
2023-04-17T12:37:09.973Z,7.57
2023-04-17T12:39:38.011Z,8.73
2023-04-17T12:42:06.077Z,7.77
2023-04-17T12:44:34.035Z,8.33
2023-04-17T12:47:02.017Z,9.10
2023-04-17T12:49:30.030Z,8.40
2023-04-17T12:51:58.628Z,8.67
2023-04-17T12:54:29.200Z,8.53
2023-04-17T12:56:57.701Z,9.27
2023-04-17T12:59:25.788Z,8.93
2023-04-17T13:01:53.945Z,10.80
2023-04-17T13:04:23.763Z,7.40
2023-04-17T13:06:52.075Z,5.63
2023-04-17T13:09:20.013Z,5.87
2023-04-17T13:11:49.419Z,7.53
2023-04-17T13:14:17.412Z,6.17
2023-04-17T13:16:45.681Z,7.20
2023-04-17T13:19:13.848Z,7.03
2023-04-17T13:21:42.103Z,6.47
2023-04-17T13:24:14.408Z,7.07
2023-04-17T13:26:42.697Z,9.47
2023-04-17T13:29:12.309Z,9.83
2023-04-17T13:31:40.601Z,7.57
2023-04-17T13:34:08.717Z,9.00
2023-04-17T13:36:36.683Z,7.47
2023-04-17T13:39:05.305Z,5.17
2023-04-17T13:41:33.279Z,6.10
2023-04-17T13:44:01.236Z,8.40
2023-04-17T13:46:31.788Z,15.50
2023-04-17T13:48:59.870Z,7.90
2023-04-17T13:51:28.105Z,8.50
2023-04-17T13:53:58.429Z,5.93
2023-04-17T13:56:27.030Z,5.57
2023-04-17T13:58:55.403Z,10.77
2023-04-17T14:01:23.371Z,6.60
2023-04-17T14:03:52.836Z,7.27
2023-04-17T14:06:21.161Z,5.40
2023-04-17T14:08:49.296Z,11.47
2023-04-17T14:11:19.174Z,7.07
2023-04-17T14:13:47.152Z,8.33
2023-04-17T14:16:15.248Z,10.37
2023-04-17T14:18:43.283Z,9.77
2023-04-17T14:21:12.947Z,10.97
2023-04-17T14:23:41.265Z,6.60
2023-04-17T14:26:09.259Z,8.07
2023-04-17T14:28:37.218Z,7.67
2023-04-17T14:31:05.488Z,8.10
2023-04-17T14:33:33.608Z,7.90
2023-04-17T14:36:02.074Z,15.43
2023-04-17T14:38:32.366Z,6.10
2023-04-17T14:41:00.384Z,6.73
2023-04-17T14:43:28.391Z,7.50
2023-04-17T14:45:56.783Z,5.70
2023-04-17T14:48:24.760Z,18.40
2023-04-17T14:50:52.758Z,10.03
2023-04-17T14:53:21.604Z,10.33
2023-04-17T14:55:51.596Z,12.07
2023-04-17T14:58:19.807Z,6.47
2023-04-17T15:00:47.835Z,7.10
2023-04-17T15:03:15.916Z,9.33
2023-04-17T15:05:45.462Z,7.53
2023-04-17T15:08:13.419Z,10.43
2023-04-17T15:10:50.740Z,12.17
2023-04-17T15:13:20.979Z,7.73
2023-04-17T15:15:49.108Z,11.43
2023-04-17T15:18:17.126Z,16.07
2023-04-17T15:20:46.224Z,5.80
2023-04-17T15:23:15.415Z,5.60
2023-04-17T15:25:43.398Z,7.17
2023-04-17T15:28:12.339Z,8.70
2023-04-17T15:30:41.659Z,7.57
2023-04-17T15:33:10.430Z,6.20
2023-04-17T15:35:38.654Z,6.50
2023-04-17T15:38:06.888Z,7.27
2023-04-17T15:40:35.108Z,8.03
2023-04-17T15:43:03.472Z,4.50
2023-04-17T15:45:31.918Z,10.30
2023-04-17T15:48:02.015Z,12.07
2023-04-17T15:50:30.239Z,8.00
2023-04-17T15:52:58.245Z,6.90
2023-04-17T15:55:26.222Z,9.10
2023-04-17T15:57:54.272Z,9.80
2023-04-17T16:00:22.623Z,8.47
2023-04-17T16:02:51.745Z,8.67
2023-04-17T16:05:21.797Z,7.10
2023-04-17T16:07:49.717Z,5.50
2023-04-17T16:10:18.915Z,8.67
2023-04-17T16:12:47.375Z,11.50
2023-04-17T16:15:17.019Z,6.63
2023-04-17T16:17:45.419Z,8.17
2023-04-17T16:20:14.318Z,6.63
2023-04-17T16:22:43.651Z,10.90
2023-04-17T16:25:12.507Z,8.80
2023-04-17T16:27:40.958Z,6.87
2023-04-17T16:30:10.616Z,6.30
2023-04-17T16:32:38.604Z,6.90
2023-04-17T16:35:07.452Z,9.20
2023-04-17T16:37:35.501Z,7.47
2023-04-17T16:40:05.391Z,6.60
2023-04-17T16:42:33.623Z,7.70
2023-04-17T16:45:01.941Z,6.50
2023-04-17T16:47:31.420Z,6.30
2023-04-17T16:49:59.678Z,10.70
2023-04-17T16:52:27.723Z,5.23
2023-04-17T16:54:55.716Z,9.13
2023-04-17T16:57:25.024Z,7.03
2023-04-17T16:59:53.033Z,6.37
2023-04-17T17:02:21.055Z,9.57
2023-04-17T17:04:49.079Z,6.40
2023-04-17T17:07:17.061Z,8.00
2023-04-17T17:09:45.016Z,8.03
2023-04-17T17:12:12.985Z,7.57
2023-04-17T17:14:42.296Z,15.43
2023-04-17T17:17:10.283Z,4.60
2023-04-17T17:19:42.157Z,8.07
2023-04-17T17:22:10.967Z,7.63
2023-04-17T17:24:39.724Z,6.10
2023-04-17T17:27:07.730Z,7.57
2023-04-17T17:29:35.692Z,7.40
2023-04-17T17:32:05.493Z,8.77
2023-04-17T17:34:33.457Z,6.83
2023-04-17T17:37:01.424Z,5.13
2023-04-17T17:39:29.481Z,7.37
2023-04-17T17:41:57.718Z,8.57
2023-04-17T17:44:25.938Z,8.47
2023-04-17T17:46:56.720Z,7.93
2023-04-17T17:49:26.052Z,7.97
2023-04-17T17:51:54.030Z,8.90
2023-04-17T17:54:22.663Z,11.10
2023-04-17T17:56:50.662Z,7.30
2023-04-17T17:59:18.746Z,7.60
2023-04-17T18:01:46.662Z,10.00
2023-04-17T18:04:15.048Z,9.07
2023-04-17T18:06:44.925Z,7.80
2023-04-17T18:09:12.924Z,10.97
2023-04-17T18:11:41.079Z,10.60
2023-04-17T18:14:09.068Z,9.43
2023-04-17T18:16:37.554Z,8.87
2023-04-17T18:19:05.587Z,7.73
2023-04-17T18:21:33.796Z,7.77
2023-04-17T18:24:03.107Z,11.20
2023-04-17T18:26:31.077Z,10.77
2023-04-17T18:28:59.045Z,8.77
2023-04-17T18:31:28.245Z,13.70
2023-04-17T18:33:56.297Z,9.20
2023-04-17T18:36:24.309Z,10.77
2023-04-17T18:38:52.290Z,9.23
2023-04-17T18:41:21.642Z,7.40
2023-04-17T18:43:49.741Z,6.83
2023-04-17T18:46:18.118Z,8.47
2023-04-17T18:48:46.201Z,8.70
2023-04-17T18:51:15.538Z,9.07
2023-04-17T18:53:43.604Z,8.47
2023-04-17T18:56:13.683Z,9.83
2023-04-17T18:58:43.087Z,8.77
2023-04-17T19:01:11.210Z,9.23
2023-04-17T19:03:39.496Z,7.43
2023-04-17T19:06:07.706Z,6.60
2023-04-17T19:08:35.914Z,9.10
2023-04-17T19:11:04.006Z,7.43
2023-04-17T19:13:32.013Z,9.30
2023-04-17T19:16:01.404Z,13.23
2023-04-17T19:18:29.499Z,8.67
2023-04-17T19:20:57.468Z,8.90
2023-04-17T19:23:25.489Z,8.37
2023-04-17T19:25:54.754Z,9.33
2023-04-17T19:28:23.057Z,7.67
2023-04-17T19:30:51.027Z,8.87
2023-04-17T19:33:20.403Z,6.80
2023-04-17T19:35:48.376Z,8.47
2023-04-17T19:38:17.257Z,7.23
2023-04-17T19:40:48.183Z,9.50
2023-04-17T19:43:16.147Z,10.43
2023-04-17T19:45:44.331Z,10.43
2023-04-17T19:48:12.257Z,8.93
2023-04-17T19:50:41.539Z,7.63
2023-04-17T19:53:09.557Z,8.87
2023-04-17T19:55:37.541Z,10.37
2023-04-17T19:58:05.665Z,9.20
2023-04-17T20:00:33.667Z,15.10
2023-04-17T20:03:01.813Z,9.60
2023-04-17T20:05:30.409Z,10.30
2023-04-17T20:07:59.670Z,11.20
2023-04-17T20:10:27.792Z,12.17
2023-04-17T20:12:55.738Z,11.60
2023-04-17T20:15:23.673Z,9.23
2023-04-17T20:17:52.040Z,7.63
2023-04-17T20:20:20.077Z,11.37
2023-04-17T20:22:48.275Z,10.50
2023-04-17T20:25:20.880Z,10.67
2023-04-17T20:27:48.842Z,11.50
2023-04-17T20:30:16.834Z,9.53
2023-04-17T20:32:45.949Z,9.33
2023-04-17T20:35:14.373Z,12.43
2023-04-17T20:37:44.475Z,10.30
2023-04-17T20:40:13.982Z,10.50
2023-04-17T20:42:44.298Z,11.50
2023-04-17T20:45:12.813Z,10.63
2023-04-17T20:47:52.827Z,9.43
2023-04-17T20:50:24.701Z,13.23
2023-04-17T20:52:52.973Z,12.00
2023-04-17T20:55:21.179Z,10.43
2023-04-17T20:57:50.668Z,11.20
2023-04-17T21:00:19.288Z,11.40
2023-04-17T21:02:47.309Z,9.40
2023-04-17T21:05:15.274Z,11.93
2023-04-17T21:07:43.166Z,10.73
2023-04-17T21:10:11.257Z,10.47
2023-04-17T21:12:39.160Z,12.97
2023-04-17T21:15:10.074Z,11.50
2023-04-17T21:17:38.103Z,10.90
2023-04-17T21:20:06.714Z,18.23
2023-04-17T21:22:36.732Z,11.93
2023-04-17T21:25:05.836Z,8.03
2023-04-17T21:27:33.782Z,11.77
2023-04-17T21:30:01.770Z,11.70
2023-04-17T21:32:31.097Z,14.33
2023-04-17T21:34:59.312Z,15.03
2023-04-17T21:37:27.245Z,15.30
2023-04-17T21:39:55.613Z,10.37
2023-04-17T21:42:24.295Z,11.13
2023-04-17T21:44:52.250Z,10.90
2023-04-17T21:47:20.481Z,9.67
2023-04-17T21:49:50.138Z,21.63
2023-04-17T21:52:18.290Z,12.60
2023-04-17T21:54:46.277Z,12.50
2023-04-17T21:57:14.207Z,10.47
2023-04-17T21:59:42.154Z,13.17
2023-04-17T22:02:10.179Z,10.63
2023-04-17T22:04:38.228Z,11.47
2023-04-17T22:07:08.528Z,10.50
2023-04-17T22:09:36.500Z,9.40
2023-04-17T22:12:12.320Z,10.60
2023-04-17T22:14:40.521Z,11.20
2023-04-17T22:17:08.508Z,11.90
2023-04-17T22:19:36.471Z,11.30
2023-04-17T22:22:04.420Z,12.57
2023-04-17T22:24:33.834Z,14.33
2023-04-17T22:27:01.867Z,12.73
2023-04-17T22:29:29.839Z,8.97
2023-04-17T22:31:57.763Z,9.57
2023-04-17T22:34:25.686Z,10.30
2023-04-17T22:36:53.635Z,14.70
2023-04-17T22:39:21.591Z,12.50
2023-04-17T22:41:51.335Z,11.07
2023-04-17T22:44:19.269Z,14.47
2023-04-17T22:46:47.215Z,12.03
2023-04-17T22:49:15.447Z,13.40
2023-04-17T22:51:44.439Z,14.60
2023-04-17T22:54:22.173Z,22.20
2023-04-17T22:56:52.378Z,15.00
2023-04-17T22:59:20.311Z,10.87
2023-04-17T23:01:48.297Z,13.47
2023-04-17T23:04:16.604Z,14.20
2023-04-17T23:06:44.610Z,9.70
2023-04-17T23:09:12.692Z,9.13
2023-04-17T23:11:40.810Z,10.83
2023-04-17T23:14:11.239Z,10.10
2023-04-17T23:16:39.438Z,10.80
2023-04-17T23:19:07.530Z,9.37
2023-04-17T23:21:35.554Z,10.00
2023-04-17T23:24:03.606Z,9.30
2023-04-17T23:26:31.618Z,11.13
2023-04-17T23:28:59.575Z,9.40
2023-04-17T23:31:29.017Z,12.63
2023-04-17T23:33:56.985Z,13.23
2023-04-17T23:36:25.012Z,14.30
2023-04-17T23:38:53.770Z,7.57
2023-04-17T23:41:21.746Z,11.97
2023-04-17T23:43:51.278Z,10.93
2023-04-17T23:46:19.500Z,9.00
2023-04-17T23:48:48.843Z,8.30
2023-04-17T23:51:16.848Z,9.03
2023-04-17T23:53:45.256Z,9.13
2023-04-17T23:56:13.247Z,10.00
2023-04-17T23:58:41.240Z,10.20
